KFKN/FKN METAR and TAF weather

Enter ICAO airport designator
Station Type Date Time Source
KFKN METAR 2020/04/09 20:55 UTC NOAA

KFKN 092055Z AUTO 27013G26KT 10SM BKN075 25/08 A2935 RMK AO2 T02530075


Station Type Date Time Source
KFKN Decoded METAR 2020/04/09 20:55 UTC NOAA

Franklin / J B Rose, VA, United States (KFKN) 36-42N 076-54W
Apr 09, 2020 - 04:55 PM EDT / 2020.04.09 2055 UTC
Wind: from the W (270 degrees) at 15 MPH (13 KT) gusting to 30 MPH (26 KT):0
Visibility: 10 mile(s):0
Sky conditions: mostly cloudy
Temperature: 77.5 F (25.3 C)
Dew Point: 45.5 F (7.5 C)
Relative Humidity: 32%
Pressure (altimeter): 29.35 in. Hg (993 hPa)
ob: KFKN 092055Z AUTO 27013G26KT 10SM BKN075 25/08 A2935 RMK AO2 T02530075
cycle: 21

Station Type Date Time Source
KFKN TAF UTC NOAA

Error!

Example: see airport list